sensor_id;sensor_type;location;lat;lon;timestamp;P1;durP1;ratioP1;P2;durP2;ratioP2
25503;SDS011;13410;52.114;5.718;2022-12-08T00:01:36;9.55;;;5.93;;
25503;SDS011;13410;52.114;5.718;2022-12-08T00:04:02;10.60;;;6.38;;
25503;SDS011;13410;52.114;5.718;2022-12-08T00:06:33;10.68;;;6.22;;
25503;SDS011;13410;52.114;5.718;2022-12-08T00:14:16;10.93;;;6.15;;
25503;SDS011;13410;52.114;5.718;2022-12-08T00:16:42;12.15;;;6.25;;
25503;SDS011;13410;52.114;5.718;2022-12-08T00:19:08;12.63;;;6.88;;
25503;SDS011;13410;52.114;5.718;2022-12-08T00:21:33;11.70;;;6.63;;
25503;SDS011;13410;52.114;5.718;2022-12-08T00:23:59;11.43;;;6.38;;
25503;SDS011;13410;52.114;5.718;2022-12-08T00:26:24;11.27;;;6.57;;
25503;SDS011;13410;52.114;5.718;2022-12-08T00:28:50;11.05;;;6.32;;
25503;SDS011;13410;52.114;5.718;2022-12-08T00:31:15;12.48;;;7.03;;
25503;SDS011;13410;52.114;5.718;2022-12-08T00:33:41;10.50;;;7.32;;
25503;SDS011;13410;52.114;5.718;2022-12-08T00:36:07;11.77;;;7.63;;
25503;SDS011;13410;52.114;5.718;2022-12-08T00:38:36;10.43;;;7.07;;
25503;SDS011;13410;52.114;5.718;2022-12-08T00:41:03;13.48;;;7.88;;
25503;SDS011;13410;52.114;5.718;2022-12-08T00:43:32;13.07;;;7.63;;
25503;SDS011;13410;52.114;5.718;2022-12-08T00:45:58;11.57;;;7.80;;
25503;SDS011;13410;52.114;5.718;2022-12-08T00:48:23;10.60;;;7.03;;
25503;SDS011;13410;52.114;5.718;2022-12-08T00:50:49;11.48;;;7.47;;
25503;SDS011;13410;52.114;5.718;2022-12-08T00:53:15;12.95;;;7.57;;
25503;SDS011;13410;52.114;5.718;2022-12-08T00:55:41;9.65;;;7.13;;
25503;SDS011;13410;52.114;5.718;2022-12-08T00:58:06;10.48;;;7.15;;
25503;SDS011;13410;52.114;5.718;2022-12-08T01:00:32;12.35;;;7.05;;
25503;SDS011;13410;52.114;5.718;2022-12-08T01:02:58;9.95;;;6.72;;
25503;SDS011;13410;52.114;5.718;2022-12-08T01:05:23;11.90;;;7.00;;
25503;SDS011;13410;52.114;5.718;2022-12-08T01:07:49;11.23;;;6.65;;
25503;SDS011;13410;52.114;5.718;2022-12-08T01:10:14;10.55;;;7.13;;
25503;SDS011;13410;52.114;5.718;2022-12-08T01:12:40;8.90;;;6.50;;
25503;SDS011;13410;52.114;5.718;2022-12-08T01:15:06;9.07;;;7.00;;
25503;SDS011;13410;52.114;5.718;2022-12-08T01:17:32;9.98;;;7.00;;
25503;SDS011;13410;52.114;5.718;2022-12-08T01:19:58;10.23;;;6.90;;
25503;SDS011;13410;52.114;5.718;2022-12-08T01:22:26;10.93;;;7.10;;
25503;SDS011;13410;52.114;5.718;2022-12-08T01:24:51;9.63;;;6.47;;
25503;SDS011;13410;52.114;5.718;2022-12-08T01:27:17;11.70;;;7.03;;
25503;SDS011;13410;52.114;5.718;2022-12-08T01:29:42;10.73;;;6.53;;
25503;SDS011;13410;52.114;5.718;2022-12-08T01:32:08;8.13;;;6.70;;
25503;SDS011;13410;52.114;5.718;2022-12-08T01:34:33;9.18;;;6.95;;
25503;SDS011;13410;52.114;5.718;2022-12-08T01:36:59;9.13;;;6.80;;
25503;SDS011;13410;52.114;5.718;2022-12-08T01:39:24;9.70;;;7.70;;
25503;SDS011;13410;52.114;5.718;2022-12-08T01:41:50;10.38;;;7.10;;
25503;SDS011;13410;52.114;5.718;2022-12-08T01:46:42;12.48;;;7.63;;
25503;SDS011;13410;52.114;5.718;2022-12-08T01:49:14;10.25;;;7.88;;
25503;SDS011;13410;52.114;5.718;2022-12-08T01:51:41;10.70;;;8.57;;
25503;SDS011;13410;52.114;5.718;2022-12-08T01:54:15;11.07;;;8.70;;
25503;SDS011;13410;52.114;5.718;2022-12-08T01:59:16;13.00;;;9.15;;
25503;SDS011;13410;52.114;5.718;2022-12-08T02:01:42;14.65;;;9.45;;
25503;SDS011;13410;52.114;5.718;2022-12-08T02:04:08;13.48;;;9.68;;
25503;SDS011;13410;52.114;5.718;2022-12-08T02:06:35;11.57;;;9.25;;
25503;SDS011;13410;52.114;5.718;2022-12-08T02:09:06;13.57;;;9.25;;
25503;SDS011;13410;52.114;5.718;2022-12-08T02:11:32;12.88;;;8.85;;
25503;SDS011;13410;52.114;5.718;2022-12-08T02:13:58;10.50;;;8.50;;
25503;SDS011;13410;52.114;5.718;2022-12-08T02:30:40;8.43;;;5.22;;
25503;SDS011;13410;52.114;5.718;2022-12-08T02:36:28;6.93;;;5.13;;
25503;SDS011;13410;52.114;5.718;2022-12-08T02:39:09;6.78;;;5.53;;
25503;SDS011;13410;52.114;5.718;2022-12-08T02:42:29;7.65;;;5.40;;
25503;SDS011;13410;52.114;5.718;2022-12-08T02:44:47;7.00;;;5.25;;
25503;SDS011;13410;52.114;5.718;2022-12-08T02:47:33;8.63;;;5.90;;
25503;SDS011;13410;52.114;5.718;2022-12-08T02:50:00;9.65;;;6.40;;
25503;SDS011;13410;52.114;5.718;2022-12-08T02:54:55;7.47;;;6.30;;
25503;SDS011;13410;52.114;5.718;2022-12-08T03:00:14;8.80;;;7.35;;
25503;SDS011;13410;52.114;5.718;2022-12-08T03:02:44;11.23;;;8.65;;
25503;SDS011;13410;52.114;5.718;2022-12-08T03:05:38;12.65;;;8.90;;
25503;SDS011;13410;52.114;5.718;2022-12-08T03:11:09;15.18;;;10.43;;
25503;SDS011;13410;52.114;5.718;2022-12-08T03:13:45;14.18;;;10.60;;
25503;SDS011;13410;52.114;5.718;2022-12-08T03:16:15;15.63;;;10.85;;
25503;SDS011;13410;52.114;5.718;2022-12-08T03:18:46;13.82;;;11.25;;
25503;SDS011;13410;52.114;5.718;2022-12-08T03:21:15;16.75;;;11.55;;
25503;SDS011;13410;52.114;5.718;2022-12-08T03:23:43;16.58;;;11.27;;
25503;SDS011;13410;52.114;5.718;2022-12-08T03:26:33;17.38;;;10.70;;
25503;SDS011;13410;52.114;5.718;2022-12-08T03:29:05;14.63;;;10.82;;
25503;SDS011;13410;52.114;5.718;2022-12-08T03:31:31;15.50;;;10.57;;
25503;SDS011;13410;52.114;5.718;2022-12-08T03:34:02;15.80;;;10.30;;
25503;SDS011;13410;52.114;5.718;2022-12-08T03:36:29;14.40;;;9.85;;
25503;SDS011;13410;52.114;5.718;2022-12-08T03:38:55;12.95;;;9.15;;
25503;SDS011;13410;52.114;5.718;2022-12-08T03:41:21;12.30;;;8.90;;
25503;SDS011;13410;52.114;5.718;2022-12-08T03:43:51;14.55;;;8.13;;
25503;SDS011;13410;52.114;5.718;2022-12-08T03:46:23;11.73;;;7.60;;
25503;SDS011;13410;52.114;5.718;2022-12-08T03:48:50;9.18;;;6.78;;
25503;SDS011;13410;52.114;5.718;2022-12-08T03:51:16;11.40;;;6.53;;
25503;SDS011;13410;52.114;5.718;2022-12-08T03:53:42;8.43;;;5.70;;
25503;SDS011;13410;52.114;5.718;2022-12-08T03:56:22;7.53;;;5.57;;
25503;SDS011;13410;52.114;5.718;2022-12-08T03:58:49;8.40;;;5.18;;
25503;SDS011;13410;52.114;5.718;2022-12-08T04:01:15;7.57;;;4.88;;
25503;SDS011;13410;52.114;5.718;2022-12-08T04:03:41;7.28;;;4.78;;
25503;SDS011;13410;52.114;5.718;2022-12-08T04:06:07;7.28;;;4.60;;
25503;SDS011;13410;52.114;5.718;2022-12-08T04:08:32;8.65;;;4.13;;
25503;SDS011;13410;52.114;5.718;2022-12-08T04:10:58;7.78;;;3.90;;
25503;SDS011;13410;52.114;5.718;2022-12-08T04:13:24;6.40;;;3.80;;
25503;SDS011;13410;52.114;5.718;2022-12-08T04:15:50;6.07;;;3.17;;
25503;SDS011;13410;52.114;5.718;2022-12-08T04:18:15;7.88;;;3.33;;
25503;SDS011;13410;52.114;5.718;2022-12-08T04:20:43;5.63;;;3.40;;
25503;SDS011;13410;52.114;5.718;2022-12-08T04:23:12;6.53;;;3.38;;
25503;SDS011;13410;52.114;5.718;2022-12-08T04:25:38;7.50;;;3.30;;
25503;SDS011;13410;52.114;5.718;2022-12-08T04:28:04;6.53;;;2.80;;
25503;SDS011;13410;52.114;5.718;2022-12-08T04:30:30;5.53;;;2.97;;
25503;SDS011;13410;52.114;5.718;2022-12-08T04:32:56;3.83;;;2.63;;
25503;SDS011;13410;52.114;5.718;2022-12-08T04:35:21;4.97;;;2.60;;
25503;SDS011;13410;52.114;5.718;2022-12-08T04:37:47;2.88;;;2.20;;
25503;SDS011;13410;52.114;5.718;2022-12-08T04:40:13;4.88;;;2.00;;
25503;SDS011;13410;52.114;5.718;2022-12-08T04:42:38;4.00;;;1.80;;
25503;SDS011;13410;52.114;5.718;2022-12-08T04:45:04;3.80;;;1.70;;
25503;SDS011;13410;52.114;5.718;2022-12-08T04:47:30;2.60;;;1.35;;
25503;SDS011;13410;52.114;5.718;2022-12-08T04:49:56;1.77;;;1.42;;
25503;SDS011;13410;52.114;5.718;2022-12-08T04:52:21;4.75;;;1.83;;
25503;SDS011;13410;52.114;5.718;2022-12-08T04:54:47;3.47;;;1.77;;
25503;SDS011;13410;52.114;5.718;2022-12-08T04:57:12;3.83;;;2.30;;
25503;SDS011;13410;52.114;5.718;2022-12-08T04:59:38;3.58;;;2.10;;
25503;SDS011;13410;52.114;5.718;2022-12-08T05:02:04;2.75;;;2.00;;
25503;SDS011;13410;52.114;5.718;2022-12-08T05:04:29;4.68;;;2.38;;
25503;SDS011;13410;52.114;5.718;2022-12-08T05:06:55;4.25;;;2.72;;
25503;SDS011;13410;52.114;5.718;2022-12-08T05:09:21;6.45;;;4.00;;
25503;SDS011;13410;52.114;5.718;2022-12-08T05:11:46;4.97;;;3.47;;
25503;SDS011;13410;52.114;5.718;2022-12-08T05:14:12;5.80;;;3.03;;
25503;SDS011;13410;52.114;5.718;2022-12-08T05:16:39;5.00;;;3.17;;
25503;SDS011;13410;52.114;5.718;2022-12-08T05:19:05;4.60;;;2.95;;
25503;SDS011;13410;52.114;5.718;2022-12-08T05:21:31;4.75;;;3.53;;
25503;SDS011;13410;52.114;5.718;2022-12-08T05:23:57;3.80;;;3.03;;
25503;SDS011;13410;52.114;5.718;2022-12-08T05:26:23;5.85;;;3.78;;
25503;SDS011;13410;52.114;5.718;2022-12-08T05:28:48;5.20;;;3.65;;
25503;SDS011;13410;52.114;5.718;2022-12-08T05:31:15;5.75;;;4.20;;
25503;SDS011;13410;52.114;5.718;2022-12-08T05:33:41;5.75;;;3.80;;
25503;SDS011;13410;52.114;5.718;2022-12-08T05:36:08;6.03;;;3.75;;
25503;SDS011;13410;52.114;5.718;2022-12-08T05:38:35;6.07;;;3.70;;
25503;SDS011;13410;52.114;5.718;2022-12-08T05:41:01;4.70;;;3.58;;
25503;SDS011;13410;52.114;5.718;2022-12-08T05:43:27;10.05;;;5.95;;
25503;SDS011;13410;52.114;5.718;2022-12-08T05:45:53;8.32;;;6.53;;
25503;SDS011;13410;52.114;5.718;2022-12-08T05:48:18;8.10;;;6.07;;
25503;SDS011;13410;52.114;5.718;2022-12-08T05:50:45;6.30;;;4.47;;
25503;SDS011;13410;52.114;5.718;2022-12-08T05:53:11;6.13;;;4.43;;
25503;SDS011;13410;52.114;5.718;2022-12-08T05:55:37;6.53;;;4.75;;
25503;SDS011;13410;52.114;5.718;2022-12-08T05:58:03;6.53;;;5.20;;
25503;SDS011;13410;52.114;5.718;2022-12-08T06:00:28;47.35;;;19.17;;
25503;SDS011;13410;52.114;5.718;2022-12-08T06:02:54;11.13;;;6.90;;
25503;SDS011;13410;52.114;5.718;2022-12-08T06:05:20;9.30;;;6.35;;
25503;SDS011;13410;52.114;5.718;2022-12-08T06:07:45;8.50;;;5.55;;
25503;SDS011;13410;52.114;5.718;2022-12-08T06:10:11;6.65;;;4.50;;
25503;SDS011;13410;52.114;5.718;2022-12-08T06:12:37;5.63;;;4.85;;
25503;SDS011;13410;52.114;5.718;2022-12-08T06:15:03;5.60;;;4.13;;
25503;SDS011;13410;52.114;5.718;2022-12-08T06:17:29;7.20;;;4.70;;
25503;SDS011;13410;52.114;5.718;2022-12-08T06:19:54;8.95;;;6.90;;
25503;SDS011;13410;52.114;5.718;2022-12-08T06:22:20;8.48;;;5.47;;
25503;SDS011;13410;52.114;5.718;2022-12-08T06:24:45;6.70;;;4.72;;
25503;SDS011;13410;52.114;5.718;2022-12-08T06:27:11;6.38;;;4.13;;
25503;SDS011;13410;52.114;5.718;2022-12-08T06:29:36;4.75;;;2.92;;
25503;SDS011;13410;52.114;5.718;2022-12-08T06:32:02;4.05;;;2.92;;
25503;SDS011;13410;52.114;5.718;2022-12-08T06:34:28;4.05;;;2.60;;
25503;SDS011;13410;52.114;5.718;2022-12-08T06:36:53;6.78;;;3.97;;
25503;SDS011;13410;52.114;5.718;2022-12-08T06:39:19;5.15;;;2.78;;
25503;SDS011;13410;52.114;5.718;2022-12-08T06:41:44;4.93;;;3.22;;
25503;SDS011;13410;52.114;5.718;2022-12-08T06:44:28;5.82;;;3.20;;
25503;SDS011;13410;52.114;5.718;2022-12-08T06:46:54;8.07;;;4.53;;
25503;SDS011;13410;52.114;5.718;2022-12-08T06:49:19;8.25;;;5.32;;
25503;SDS011;13410;52.114;5.718;2022-12-08T06:51:45;8.27;;;5.18;;
25503;SDS011;13410;52.114;5.718;2022-12-08T06:54:11;4.88;;;3.60;;
25503;SDS011;13410;52.114;5.718;2022-12-08T06:56:36;6.95;;;4.65;;
25503;SDS011;13410;52.114;5.718;2022-12-08T06:59:02;5.38;;;4.18;;
25503;SDS011;13410;52.114;5.718;2022-12-08T07:01:28;8.55;;;3.67;;
25503;SDS011;13410;52.114;5.718;2022-12-08T07:03:53;4.78;;;3.25;;
25503;SDS011;13410;52.114;5.718;2022-12-08T07:06:20;6.18;;;3.63;;
25503;SDS011;13410;52.114;5.718;2022-12-08T07:08:48;6.38;;;4.05;;
25503;SDS011;13410;52.114;5.718;2022-12-08T07:11:14;5.50;;;3.80;;
25503;SDS011;13410;52.114;5.718;2022-12-08T07:13:39;8.75;;;4.82;;
25503;SDS011;13410;52.114;5.718;2022-12-08T07:16:06;8.05;;;4.80;;
25503;SDS011;13410;52.114;5.718;2022-12-08T07:18:36;7.20;;;4.68;;
25503;SDS011;13410;52.114;5.718;2022-12-08T07:21:06;7.05;;;5.20;;
25503;SDS011;13410;52.114;5.718;2022-12-08T07:23:33;12.23;;;8.75;;
25503;SDS011;13410;52.114;5.718;2022-12-08T07:26:01;11.70;;;8.57;;
25503;SDS011;13410;52.114;5.718;2022-12-08T07:28:34;8.95;;;6.38;;
25503;SDS011;13410;52.114;5.718;2022-12-08T07:31:00;12.90;;;8.35;;
25503;SDS011;13410;52.114;5.718;2022-12-08T07:33:26;8.55;;;6.10;;
25503;SDS011;13410;52.114;5.718;2022-12-08T07:35:56;14.45;;;10.18;;
25503;SDS011;13410;52.114;5.718;2022-12-08T07:38:23;8.18;;;6.43;;
25503;SDS011;13410;52.114;5.718;2022-12-08T07:40:50;7.43;;;5.43;;
25503;SDS011;13410;52.114;5.718;2022-12-08T07:43:16;7.00;;;4.90;;
25503;SDS011;13410;52.114;5.718;2022-12-08T07:45:42;7.53;;;4.78;;
25503;SDS011;13410;52.114;5.718;2022-12-08T07:48:07;5.85;;;4.20;;
25503;SDS011;13410;52.114;5.718;2022-12-08T07:50:33;5.15;;;3.63;;
25503;SDS011;13410;52.114;5.718;2022-12-08T07:52:59;6.20;;;4.05;;
25503;SDS011;13410;52.114;5.718;2022-12-08T07:55:24;5.80;;;3.92;;
25503;SDS011;13410;52.114;5.718;2022-12-08T07:57:50;6.25;;;4.15;;
25503;SDS011;13410;52.114;5.718;2022-12-08T08:00:16;5.03;;;3.67;;
25503;SDS011;13410;52.114;5.718;2022-12-08T08:02:43;6.85;;;4.88;;
25503;SDS011;13410;52.114;5.718;2022-12-08T08:05:09;8.93;;;5.95;;
25503;SDS011;13410;52.114;5.718;2022-12-08T08:07:38;6.70;;;4.60;;
25503;SDS011;13410;52.114;5.718;2022-12-08T08:10:10;9.43;;;6.55;;
25503;SDS011;13410;52.114;5.718;2022-12-08T08:12:36;7.00;;;3.97;;
25503;SDS011;13410;52.114;5.718;2022-12-08T08:15:03;7.50;;;4.72;;
25503;SDS011;13410;52.114;5.718;2022-12-08T08:17:31;14.52;;;9.10;;
25503;SDS011;13410;52.114;5.718;2022-12-08T08:19:57;12.05;;;8.60;;
25503;SDS011;13410;52.114;5.718;2022-12-08T08:22:24;12.95;;;9.25;;
25503;SDS011;13410;52.114;5.718;2022-12-08T08:24:50;6.82;;;5.35;;
25503;SDS011;13410;52.114;5.718;2022-12-08T08:27:16;8.27;;;4.78;;
25503;SDS011;13410;52.114;5.718;2022-12-08T08:29:42;5.13;;;3.15;;
25503;SDS011;13410;52.114;5.718;2022-12-08T08:32:07;6.25;;;4.63;;
25503;SDS011;13410;52.114;5.718;2022-12-08T08:34:39;5.32;;;4.20;;
25503;SDS011;13410;52.114;5.718;2022-12-08T08:44:03;3.85;;;2.60;;
25503;SDS011;13410;52.114;5.718;2022-12-08T08:46:29;5.78;;;3.60;;
25503;SDS011;13410;52.114;5.718;2022-12-08T08:48:55;3.67;;;2.80;;
25503;SDS011;13410;52.114;5.718;2022-12-08T08:51:22;3.85;;;2.58;;
25503;SDS011;13410;52.114;5.718;2022-12-08T08:53:47;5.07;;;3.72;;
25503;SDS011;13410;52.114;5.718;2022-12-08T08:56:14;5.65;;;4.38;;
25503;SDS011;13410;52.114;5.718;2022-12-08T08:58:43;6.72;;;3.88;;
25503;SDS011;13410;52.114;5.718;2022-12-08T09:01:17;19.20;;;10.85;;
25503;SDS011;13410;52.114;5.718;2022-12-08T09:12:15;12.55;;;4.50;;
25503;SDS011;13410;52.114;5.718;2022-12-08T09:14:41;6.15;;;4.43;;
25503;SDS011;13410;52.114;5.718;2022-12-08T09:17:07;9.52;;;5.88;;
25503;SDS011;13410;52.114;5.718;2022-12-08T09:19:32;6.95;;;5.05;;
25503;SDS011;13410;52.114;5.718;2022-12-08T09:21:58;6.80;;;4.50;;
25503;SDS011;13410;52.114;5.718;2022-12-08T09:24:23;4.88;;;3.33;;
25503;SDS011;13410;52.114;5.718;2022-12-08T09:26:49;5.65;;;4.35;;
25503;SDS011;13410;52.114;5.718;2022-12-08T09:29:15;8.00;;;5.47;;
25503;SDS011;13410;52.114;5.718;2022-12-08T09:31:41;9.23;;;5.50;;
25503;SDS011;13410;52.114;5.718;2022-12-08T09:34:08;12.73;;;6.65;;
25503;SDS011;13410;52.114;5.718;2022-12-08T09:36:37;8.57;;;5.25;;
25503;SDS011;13410;52.114;5.718;2022-12-08T09:39:03;6.80;;;4.03;;
25503;SDS011;13410;52.114;5.718;2022-12-08T09:41:32;5.57;;;3.90;;
25503;SDS011;13410;52.114;5.718;2022-12-08T09:46:27;5.15;;;2.53;;
25503;SDS011;13410;52.114;5.718;2022-12-08T09:48:56;2.85;;;1.75;;
25503;SDS011;13410;52.114;5.718;2022-12-08T09:51:24;4.18;;;2.13;;
25503;SDS011;13410;52.114;5.718;2022-12-08T09:53:54;5.18;;;3.00;;
25503;SDS011;13410;52.114;5.718;2022-12-08T09:56:24;7.32;;;4.50;;
25503;SDS011;13410;52.114;5.718;2022-12-08T09:58:55;3.58;;;2.80;;
25503;SDS011;13410;52.114;5.718;2022-12-08T10:01:29;5.57;;;3.58;;
25503;SDS011;13410;52.114;5.718;2022-12-08T10:03:56;10.20;;;5.63;;
25503;SDS011;13410;52.114;5.718;2022-12-08T10:09:22;11.57;;;5.90;;
25503;SDS011;13410;52.114;5.718;2022-12-08T10:12:02;8.88;;;4.57;;
25503;SDS011;13410;52.114;5.718;2022-12-08T10:14:43;8.85;;;3.30;;
25503;SDS011;13410;52.114;5.718;2022-12-08T10:17:34;37.40;;;13.68;;
25503;SDS011;13410;52.114;5.718;2022-12-08T10:20:08;9.95;;;4.47;;
25503;SDS011;13410;52.114;5.718;2022-12-08T10:22:36;13.00;;;9.63;;
25503;SDS011;13410;52.114;5.718;2022-12-08T10:25:48;5.10;;;3.40;;
25503;SDS011;13410;52.114;5.718;2022-12-08T10:28:08;1.90;;;1.10;;
25503;SDS011;13410;52.114;5.718;2022-12-08T10:30:34;5.15;;;2.95;;
25503;SDS011;13410;52.114;5.718;2022-12-08T10:33:00;18.58;;;9.13;;
25503;SDS011;13410;52.114;5.718;2022-12-08T10:35:40;18.63;;;11.13;;
25503;SDS011;13410;52.114;5.718;2022-12-08T10:38:30;12.90;;;6.55;;
25503;SDS011;13410;52.114;5.718;2022-12-08T10:41:19;13.27;;;8.27;;
25503;SDS011;13410;52.114;5.718;2022-12-08T10:43:48;8.48;;;5.72;;
25503;SDS011;13410;52.114;5.718;2022-12-08T10:46:19;4.57;;;3.00;;
25503;SDS011;13410;52.114;5.718;2022-12-08T10:48:48;6.65;;;4.22;;
25503;SDS011;13410;52.114;5.718;2022-12-08T10:51:28;9.40;;;4.68;;
25503;SDS011;13410;52.114;5.718;2022-12-08T10:54:00;3.20;;;1.98;;
25503;SDS011;13410;52.114;5.718;2022-12-08T10:56:27;2.38;;;1.60;;
25503;SDS011;13410;52.114;5.718;2022-12-08T10:59:05;7.00;;;4.20;;
25503;SDS011;13410;52.114;5.718;2022-12-08T11:01:44;9.90;;;6.60;;
25503;SDS011;13410;52.114;5.718;2022-12-08T11:04:12;3.22;;;2.00;;
25503;SDS011;13410;52.114;5.718;2022-12-08T11:06:48;6.22;;;3.70;;
25503;SDS011;13410;52.114;5.718;2022-12-08T11:17:00;6.18;;;4.13;;
25503;SDS011;13410;52.114;5.718;2022-12-08T11:19:29;4.38;;;2.92;;
25503;SDS011;13410;52.114;5.718;2022-12-08T11:21:55;4.25;;;3.25;;
25503;SDS011;13410;52.114;5.718;2022-12-08T11:24:25;4.15;;;3.17;;
25503;SDS011;13410;52.114;5.718;2022-12-08T11:27:01;12.07;;;7.68;;
25503;SDS011;13410;52.114;5.718;2022-12-08T11:29:33;6.53;;;4.40;;
25503;SDS011;13410;52.114;5.718;2022-12-08T11:32:01;4.32;;;2.70;;
25503;SDS011;13410;52.114;5.718;2022-12-08T11:34:42;8.80;;;4.90;;
25503;SDS011;13410;52.114;5.718;2022-12-08T11:39:52;12.32;;;8.50;;
25503;SDS011;13410;52.114;5.718;2022-12-08T11:42:22;5.28;;;3.83;;
25503;SDS011;13410;52.114;5.718;2022-12-08T11:44:54;3.65;;;2.63;;
25503;SDS011;13410;52.114;5.718;2022-12-08T11:47:23;5.87;;;4.10;;
25503;SDS011;13410;52.114;5.718;2022-12-08T11:49:53;6.00;;;2.83;;
25503;SDS011;13410;52.114;5.718;2022-12-08T11:52:42;6.82;;;4.43;;
25503;SDS011;13410;52.114;5.718;2022-12-08T11:57:56;6.28;;;3.67;;
25503;SDS011;13410;52.114;5.718;2022-12-08T12:00:25;12.18;;;6.97;;
25503;SDS011;13410;52.114;5.718;2022-12-08T12:02:53;7.95;;;4.95;;
25503;SDS011;13410;52.114;5.718;2022-12-08T12:05:30;12.02;;;6.07;;
25503;SDS011;13410;52.114;5.718;2022-12-08T12:14:36;9.90;;;6.70;;
25503;SDS011;13410;52.114;5.718;2022-12-08T12:17:38;8.77;;;5.97;;
25503;SDS011;13410;52.114;5.718;2022-12-08T12:20:20;9.52;;;6.10;;
25503;SDS011;13410;52.114;5.718;2022-12-08T12:22:52;7.53;;;5.03;;
25503;SDS011;13410;52.114;5.718;2022-12-08T12:25:24;9.57;;;6.45;;
25503;SDS011;13410;52.114;5.718;2022-12-08T12:27:51;8.80;;;4.40;;
25503;SDS011;13410;52.114;5.718;2022-12-08T12:30:23;6.13;;;4.05;;
25503;SDS011;13410;52.114;5.718;2022-12-08T12:35:26;5.10;;;3.72;;
25503;SDS011;13410;52.114;5.718;2022-12-08T12:38:02;6.97;;;3.65;;
25503;SDS011;13410;52.114;5.718;2022-12-08T12:41:01;8.50;;;5.50;;
25503;SDS011;13410;52.114;5.718;2022-12-08T12:43:29;6.97;;;4.10;;
25503;SDS011;13410;52.114;5.718;2022-12-08T12:48:47;4.78;;;2.63;;
25503;SDS011;13410;52.114;5.718;2022-12-08T12:54:24;14.88;;;9.18;;
25503;SDS011;13410;52.114;5.718;2022-12-08T12:59:43;19.30;;;14.57;;
25503;SDS011;13410;52.114;5.718;2022-12-08T13:05:08;42.97;;;27.73;;
25503;SDS011;13410;52.114;5.718;2022-12-08T13:07:56;9.68;;;5.13;;
25503;SDS011;13410;52.114;5.718;2022-12-08T13:10:37;5.85;;;4.18;;
25503;SDS011;13410;52.114;5.718;2022-12-08T13:15:40;4.68;;;2.72;;
25503;SDS011;13410;52.114;5.718;2022-12-08T13:18:18;6.40;;;2.80;;
25503;SDS011;13410;52.114;5.718;2022-12-08T13:21:15;5.35;;;3.60;;
25503;SDS011;13410;52.114;5.718;2022-12-08T13:23:47;6.03;;;2.72;;
25503;SDS011;13410;52.114;5.718;2022-12-08T13:26:17;7.43;;;5.47;;
25503;SDS011;13410;52.114;5.718;2022-12-08T13:34:24;7.65;;;5.18;;
25503;SDS011;13410;52.114;5.718;2022-12-08T13:42:10;8.40;;;4.78;;
25503;SDS011;13410;52.114;5.718;2022-12-08T13:47:28;8.65;;;5.57;;
25503;SDS011;13410;52.114;5.718;2022-12-08T13:50:02;8.13;;;5.22;;
25503;SDS011;13410;52.114;5.718;2022-12-08T13:52:42;7.82;;;5.03;;
25503;SDS011;13410;52.114;5.718;2022-12-08T13:55:49;9.18;;;5.60;;
25503;SDS011;13410;52.114;5.718;2022-12-08T13:58:15;3.35;;;2.20;;
25503;SDS011;13410;52.114;5.718;2022-12-08T14:00:42;4.20;;;2.45;;
25503;SDS011;13410;52.114;5.718;2022-12-08T14:03:16;6.90;;;3.08;;
25503;SDS011;13410;52.114;5.718;2022-12-08T14:05:42;4.55;;;2.33;;
25503;SDS011;13410;52.114;5.718;2022-12-08T14:08:15;7.35;;;5.40;;
25503;SDS011;13410;52.114;5.718;2022-12-08T14:10:45;2.92;;;1.67;;
25503;SDS011;13410;52.114;5.718;2022-12-08T14:13:18;4.45;;;2.72;;
25503;SDS011;13410;52.114;5.718;2022-12-08T14:15:43;6.63;;;3.28;;
25503;SDS011;13410;52.114;5.718;2022-12-08T14:18:42;7.40;;;2.33;;
25503;SDS011;13410;52.114;5.718;2022-12-08T14:21:05;5.07;;;3.40;;
25503;SDS011;13410;52.114;5.718;2022-12-08T14:23:35;6.47;;;4.18;;
25503;SDS011;13410;52.114;5.718;2022-12-08T14:26:04;15.35;;;8.80;;
25503;SDS011;13410;52.114;5.718;2022-12-08T14:28:31;10.77;;;6.13;;
25503;SDS011;13410;52.114;5.718;2022-12-08T14:30:57;26.58;;;13.18;;
25503;SDS011;13410;52.114;5.718;2022-12-08T14:33:24;26.50;;;12.18;;
25503;SDS011;13410;52.114;5.718;2022-12-08T14:35:52;35.00;;;16.40;;
25503;SDS011;13410;52.114;5.718;2022-12-08T14:38:19;16.20;;;8.90;;
25503;SDS011;13410;52.114;5.718;2022-12-08T14:43:36;3.90;;;3.00;;
25503;SDS011;13410;52.114;5.718;2022-12-08T14:46:18;6.18;;;4.13;;
25503;SDS011;13410;52.114;5.718;2022-12-08T14:48:46;10.85;;;8.15;;
25503;SDS011;13410;52.114;5.718;2022-12-08T14:53:44;10.02;;;7.38;;
25503;SDS011;13410;52.114;5.718;2022-12-08T14:59:19;7.53;;;4.88;;
25503;SDS011;13410;52.114;5.718;2022-12-08T15:01:50;8.13;;;3.97;;
25503;SDS011;13410;52.114;5.718;2022-12-08T15:04:26;6.63;;;4.00;;
25503;SDS011;13410;52.114;5.718;2022-12-08T15:09:38;12.05;;;7.40;;
25503;SDS011;13410;52.114;5.718;2022-12-08T15:14:41;21.15;;;14.68;;
25503;SDS011;13410;52.114;5.718;2022-12-08T15:20:26;21.65;;;14.13;;
25503;SDS011;13410;52.114;5.718;2022-12-08T15:22:56;20.90;;;11.10;;
25503;SDS011;13410;52.114;5.718;2022-12-08T15:25:22;13.23;;;7.72;;
25503;SDS011;13410;52.114;5.718;2022-12-08T15:27:49;12.07;;;7.43;;
25503;SDS011;13410;52.114;5.718;2022-12-08T15:30:18;10.45;;;6.55;;
25503;SDS011;13410;52.114;5.718;2022-12-08T15:32:47;13.23;;;9.65;;
25503;SDS011;13410;52.114;5.718;2022-12-08T15:35:16;19.85;;;14.02;;
25503;SDS011;13410;52.114;5.718;2022-12-08T15:37:41;14.27;;;11.35;;
25503;SDS011;13410;52.114;5.718;2022-12-08T15:40:18;11.60;;;7.45;;
25503;SDS011;13410;52.114;5.718;2022-12-08T15:42:45;12.82;;;8.88;;
25503;SDS011;13410;52.114;5.718;2022-12-08T15:45:14;15.43;;;10.75;;
25503;SDS011;13410;52.114;5.718;2022-12-08T15:47:41;13.70;;;10.13;;
25503;SDS011;13410;52.114;5.718;2022-12-08T15:50:15;29.15;;;17.23;;
25503;SDS011;13410;52.114;5.718;2022-12-08T15:52:42;31.27;;;17.33;;
25503;SDS011;13410;52.114;5.718;2022-12-08T15:55:14;32.60;;;20.50;;
25503;SDS011;13410;52.114;5.718;2022-12-08T15:57:53;40.80;;;21.80;;
25503;SDS011;13410;52.114;5.718;2022-12-08T16:00:24;37.10;;;20.27;;
25503;SDS011;13410;52.114;5.718;2022-12-08T16:02:52;27.52;;;17.38;;
25503;SDS011;13410;52.114;5.718;2022-12-08T16:05:19;42.10;;;25.33;;
25503;SDS011;13410;52.114;5.718;2022-12-08T16:07:45;28.60;;;20.00;;
25503;SDS011;13410;52.114;5.718;2022-12-08T16:10:15;34.53;;;23.80;;
25503;SDS011;13410;52.114;5.718;2022-12-08T16:12:43;41.67;;;26.98;;
25503;SDS011;13410;52.114;5.718;2022-12-08T16:15:28;41.00;;;24.70;;
25503;SDS011;13410;52.114;5.718;2022-12-08T16:17:54;31.65;;;20.13;;
25503;SDS011;13410;52.114;5.718;2022-12-08T16:20:21;28.10;;;19.25;;
25503;SDS011;13410;52.114;5.718;2022-12-08T16:22:47;28.92;;;17.10;;
25503;SDS011;13410;52.114;5.718;2022-12-08T16:25:13;40.92;;;23.17;;
25503;SDS011;13410;52.114;5.718;2022-12-08T16:27:39;52.45;;;29.45;;
25503;SDS011;13410;52.114;5.718;2022-12-08T16:30:06;125.53;;;67.32;;
25503;SDS011;13410;52.114;5.718;2022-12-08T16:32:39;76.53;;;44.17;;
25503;SDS011;13410;52.114;5.718;2022-12-08T16:35:05;72.38;;;35.80;;
25503;SDS011;13410;52.114;5.718;2022-12-08T16:37:31;42.20;;;23.30;;
25503;SDS011;13410;52.114;5.718;2022-12-08T16:39:57;76.38;;;43.35;;
25503;SDS011;13410;52.114;5.718;2022-12-08T16:42:23;30.77;;;16.73;;
25503;SDS011;13410;52.114;5.718;2022-12-08T16:47:35;20.83;;;13.45;;
25503;SDS011;13410;52.114;5.718;2022-12-08T16:50:05;29.08;;;20.48;;
25503;SDS011;13410;52.114;5.718;2022-12-08T16:52:34;16.98;;;11.80;;
25503;SDS011;13410;52.114;5.718;2022-12-08T16:54:59;17.67;;;11.55;;
25503;SDS011;13410;52.114;5.718;2022-12-08T16:57:26;15.45;;;11.35;;
25503;SDS011;13410;52.114;5.718;2022-12-08T16:59:51;14.30;;;9.25;;